Time;durP1;ratioP1;P1;durP2;ratioP2;P2;SDS_P1;SDS_P2;PMS_P1;PMS_P2;Temp;Humidity;BMP_temperature;BMP_pressure;BME280_temperature;BME280_humidity;BME280_pressure;Samples;Min_cycle;Max_cycle;Signal;HPM_P1;HPM_P2
2021/05/15 00:01:51;;;;;;;25.80;17.00;;;;;;;;;;5076348;28;20045;-61
2021/05/15 00:04:36;;;;;;;27.48;17.23;;;;;;;;;;5089970;28;20044;-61
2021/05/15 00:07:21;;;;;;;36.45;19.92;;;;;;;;;;5095706;28;20044;-61
2021/05/15 00:10:07;;;;;;;33.50;18.40;;;;;;;;;;5093674;28;20517;-61
2021/05/15 00:12:52;;;;;;;36.38;19.20;;;;;;;;;;5095480;28;20048;-60
2021/05/15 00:15:38;;;;;;;37.38;19.85;;;;;;;;;;5094011;28;20059;-61
2021/05/15 00:18:23;;;;;;;45.13;20.20;;;;;;;;;;5095505;28;20051;-61
2021/05/15 00:21:09;;;;;;;37.20;19.73;;;;;;;;;;5075912;28;20048;-61
2021/05/15 00:23:54;;;;;;;34.42;19.52;;;;;;;;;;5095509;28;20044;-61
2021/05/15 00:26:39;;;;;;;25.92;17.38;;;;;;;;;;5079969;28;20075;-61
2021/05/15 00:29:25;;;;;;;38.58;19.58;;;;;;;;;;5094868;28;20106;-61
2021/05/15 00:32:10;;;;;;;38.38;18.17;;;;;;;;;;5080691;28;20375;-63
2021/05/15 00:34:55;;;;;;;41.15;19.30;;;;;;;;;;5075864;28;20516;-63
2021/05/15 00:37:41;;;;;;;42.30;20.50;;;;;;;;;;5075963;28;20410;-64
2021/05/15 00:40:26;;;;;;;42.25;21.40;;;;;;;;;;5076846;28;20047;-61
2021/05/15 00:43:12;;;;;;;42.50;21.15;;;;;;;;;;5095477;28;20121;-61
2021/05/15 00:45:57;;;;;;;32.78;18.42;;;;;;;;;;5096420;28;20051;-63
2021/05/15 00:48:43;;;;;;;27.58;16.48;;;;;;;;;;5096108;28;20040;-61
2021/05/15 00:51:28;;;;;;;35.72;19.35;;;;;;;;;;5092081;28;20044;-61
2021/05/15 00:54:13;;;;;;;51.10;22.08;;;;;;;;;;5074099;28;20048;-63
2021/05/15 00:56:59;;;;;;;42.15;19.40;;;;;;;;;;5076517;28;20044;-63
2021/05/15 00:59:45;;;;;;;30.77;17.73;;;;;;;;;;5076414;28;20059;-62
2021/05/15 01:02:30;;;;;;;35.55;18.33;;;;;;;;;;5083131;28;20048;-61
2021/05/15 01:05:15;;;;;;;37.22;19.73;;;;;;;;;;5094446;28;20052;-62
2021/05/15 01:08:01;;;;;;;41.67;20.30;;;;;;;;;;5082302;28;20048;-62
2021/05/15 01:10:46;;;;;;;40.85;21.00;;;;;;;;;;5073358;28;20131;-62
2021/05/15 01:13:33;;;;;;;35.40;20.38;;;;;;;;;;5059189;28;20362;-62
2021/05/15 01:16:18;;;;;;;50.53;23.17;;;;;;;;;;5076558;28;20076;-64
2021/05/15 01:19:04;;;;;;;37.17;19.65;;;;;;;;;;5074750;28;20040;-61
2021/05/15 01:21:50;;;;;;;48.78;23.95;;;;;;;;;;5060777;28;20048;-63
2021/05/15 01:24:35;;;;;;;43.17;21.38;;;;;;;;;;5096390;28;20052;-63
2021/05/15 01:27:20;;;;;;;47.70;23.00;;;;;;;;;;5096189;28;20048;-64
2021/05/15 01:30:08;;;;;;;44.42;21.60;;;;;;;;;;5094021;28;20036;-62
2021/05/15 01:32:53;;;;;;;50.90;21.73;;;;;;;;;;5076050;28;20048;-61
2021/05/15 01:35:38;;;;;;;48.45;21.63;;;;;;;;;;5073871;28;20174;-61
2021/05/15 01:38:23;;;;;;;38.50;19.80;;;;;;;;;;5073517;28;20056;-61
2021/05/15 01:41:10;;;;;;;36.60;18.80;;;;;;;;;;5075161;28;20049;-63
2021/05/15 01:43:58;;;;;;;42.78;20.25;;;;;;;;;;5083966;28;20064;-61
2021/05/15 01:46:44;;;;;;;42.58;20.10;;;;;;;;;;5093674;28;20513;-61
2021/05/15 01:49:29;;;;;;;39.95;20.50;;;;;;;;;;5093470;28;20048;-61
2021/05/15 01:52:15;;;;;;;38.75;18.80;;;;;;;;;;5093640;28;20036;-63
2021/05/15 01:55:00;;;;;;;35.00;20.80;;;;;;;;;;5079034;28;20549;-63
2021/05/15 01:57:45;;;;;;;44.63;22.40;;;;;;;;;;5073457;28;20052;-63
2021/05/15 02:00:30;;;;;;;38.72;20.02;;;;;;;;;;5074233;28;20060;-63
2021/05/15 02:03:16;;;;;;;31.88;19.05;;;;;;;;;;5076160;28;20040;-64
2021/05/15 02:06:01;;;;;;;37.95;20.05;;;;;;;;;;5094775;28;20478;-63
2021/05/15 02:08:48;;;;;;;37.47;19.48;;;;;;;;;;5095597;28;20040;-61
2021/05/15 02:11:35;;;;;;;37.65;21.25;;;;;;;;;;5092968;28;20036;-61
2021/05/15 02:14:20;;;;;;;41.90;22.05;;;;;;;;;;5089937;28;20554;-62
2021/05/15 02:17:06;;;;;;;50.42;24.05;;;;;;;;;;5072893;28;20478;-62
2021/05/15 02:19:51;;;;;;;49.17;22.50;;;;;;;;;;5072726;28;20062;-62
2021/05/15 02:22:37;;;;;;;41.22;22.23;;;;;;;;;;5072771;28;20379;-62
2021/05/15 02:25:22;;;;;;;42.08;21.92;;;;;;;;;;5081284;28;20048;-61
2021/05/15 02:28:07;;;;;;;48.10;23.73;;;;;;;;;;5092869;28;20040;-61
2021/05/15 02:30:53;;;;;;;43.95;22.38;;;;;;;;;;5092747;28;20048;-61
2021/05/15 02:33:38;;;;;;;48.08;23.05;;;;;;;;;;5093868;28;20055;-62
2021/05/15 02:36:24;;;;;;;47.85;23.65;;;;;;;;;;5078978;28;20044;-61
2021/05/15 02:39:09;;;;;;;47.35;23.85;;;;;;;;;;5056200;28;20078;-61
2021/05/15 02:41:55;;;;;;;49.10;23.88;;;;;;;;;;5072422;28;20079;-61
2021/05/15 02:44:40;;;;;;;49.38;24.60;;;;;;;;;;5072838;28;20052;-63
2021/05/15 02:47:25;;;;;;;51.85;23.35;;;;;;;;;;5093421;28;20052;-63
2021/05/15 02:50:11;;;;;;;42.95;21.92;;;;;;;;;;5094012;28;20050;-62
2021/05/15 02:52:57;;;;;;;50.30;23.70;;;;;;;;;;5092766;28;20043;-62
2021/05/15 02:55:42;;;;;;;50.75;23.38;;;;;;;;;;5089471;28;20502;-61
2021/05/15 02:58:27;;;;;;;42.35;22.05;;;;;;;;;;5072440;28;20052;-63
2021/05/15 03:01:13;;;;;;;43.88;22.20;;;;;;;;;;5071889;28;20044;-61
2021/05/15 03:03:58;;;;;;;46.80;22.92;;;;;;;;;;5072113;28;20106;-62
2021/05/15 03:06:43;;;;;;;50.58;25.10;;;;;;;;;;5077235;28;20516;-63
2021/05/15 03:09:29;;;;;;;44.15;23.15;;;;;;;;;;5094966;28;20044;-63
2021/05/15 03:12:14;;;;;;;44.83;23.50;;;;;;;;;;5095582;28;20040;-63
2021/05/15 03:14:59;;;;;;;41.97;21.67;;;;;;;;;;5093319;28;20132;-62
2021/05/15 03:17:45;;;;;;;39.53;21.77;;;;;;;;;;5077301;28;20041;-62
2021/05/15 03:20:34;;;;;;;39.70;23.08;;;;;;;;;;5074230;28;20047;-62
2021/05/15 03:23:20;;;;;;;40.05;20.48;;;;;;;;;;5072192;28;20052;-62
2021/05/15 03:26:05;;;;;;;34.45;19.50;;;;;;;;;;5072039;28;20185;-63
2021/05/15 03:28:50;;;;;;;31.63;19.20;;;;;;;;;;5093073;28;20051;-64
2021/05/15 03:31:36;;;;;;;33.08;18.10;;;;;;;;;;5092395;28;20490;-62
2021/05/15 03:34:21;;;;;;;30.38;18.02;;;;;;;;;;5077161;28;20048;-62
2021/05/15 03:37:06;;;;;;;32.88;18.10;;;;;;;;;;5090685;28;20539;-62
2021/05/15 03:39:52;;;;;;;30.88;17.63;;;;;;;;;;5076681;28;20055;-63
2021/05/15 03:42:38;;;;;;;33.65;18.67;;;;;;;;;;5092139;28;20052;-62
2021/05/15 03:45:23;;;;;;;32.72;18.75;;;;;;;;;;5091864;28;20159;-62
2021/05/15 03:48:08;;;;;;;27.02;17.02;;;;;;;;;;5083583;28;20044;-63
2021/05/15 03:50:54;;;;;;;28.42;18.63;;;;;;;;;;5071449;28;20126;-61
2021/05/15 03:53:39;;;;;;;30.08;17.90;;;;;;;;;;5072005;28;20449;-62
2021/05/15 03:56:24;;;;;;;25.98;16.92;;;;;;;;;;5073269;28;20140;-63
2021/05/15 03:59:10;;;;;;;28.85;17.35;;;;;;;;;;5086557;28;20051;-61
2021/05/15 04:01:55;;;;;;;25.85;16.92;;;;;;;;;;5091757;28;20052;-61
2021/05/15 04:04:41;;;;;;;25.70;17.13;;;;;;;;;;5093251;28;20063;-62
2021/05/15 04:07:26;;;;;;;29.60;16.92;;;;;;;;;;5091792;28;20056;-63
2021/05/15 04:10:11;;;;;;;28.50;16.67;;;;;;;;;;5072665;28;20044;-63
2021/05/15 04:15:49;;;;;;;27.73;16.20;;;;;;;;;;5074807;28;20060;-64
2021/05/15 04:18:35;;;;;;;25.50;15.85;;;;;;;;;;5074587;28;20040;-61
2021/05/15 04:21:20;;;;;;;24.40;15.27;;;;;;;;;;5075885;28;20486;-61
2021/05/15 04:24:06;;;;;;;24.92;15.30;;;;;;;;;;5094472;28;20044;-63
2021/05/15 04:26:54;;;;;;;26.05;16.02;;;;;;;;;;5092128;28;20482;-62
2021/05/15 04:29:40;;;;;;;27.45;17.25;;;;;;;;;;5084828;28;20060;-62
2021/05/15 04:32:25;;;;;;;28.00;16.40;;;;;;;;;;5078968;28;20041;-62
2021/05/15 04:35:10;;;;;;;25.13;15.70;;;;;;;;;;5075955;28;20410;-63
2021/05/15 04:37:56;;;;;;;21.77;13.82;;;;;;;;;;5075107;28;20127;-63
2021/05/15 04:40:41;;;;;;;24.90;15.93;;;;;;;;;;5089038;28;20441;-63
2021/05/15 04:43:26;;;;;;;28.90;16.15;;;;;;;;;;5095019;28;20123;-64
2021/05/15 04:46:12;;;;;;;23.58;15.93;;;;;;;;;;5095086;28;20048;-63
2021/05/15 04:48:57;;;;;;;27.20;16.63;;;;;;;;;;5094906;28;20227;-63
2021/05/15 04:51:43;;;;;;;23.40;15.00;;;;;;;;;;5069819;28;20048;-62
2021/05/15 04:54:28;;;;;;;26.60;16.15;;;;;;;;;;5074689;28;20049;-62
2021/05/15 04:57:13;;;;;;;23.00;15.38;;;;;;;;;;5074585;28;20098;-61
2021/05/15 04:59:59;;;;;;;24.20;15.35;;;;;;;;;;5076719;28;20414;-61
2021/05/15 05:02:44;;;;;;;28.23;15.98;;;;;;;;;;5094702;28;20123;-63
2021/05/15 05:05:29;;;;;;;23.70;15.82;;;;;;;;;;5094748;28;20568;-61
2021/05/15 05:08:15;;;;;;;21.80;14.60;;;;;;;;;;5094471;28;20520;-63
2021/05/15 05:11:00;;;;;;;25.55;16.02;;;;;;;;;;5085718;28;20142;-63
2021/05/15 05:13:46;;;;;;;22.95;15.45;;;;;;;;;;5076136;28;20182;-64
2021/05/15 05:16:31;;;;;;;26.63;16.75;;;;;;;;;;5074096;28;20045;-64
2021/05/15 05:19:17;;;;;;;24.40;16.42;;;;;;;;;;5073921;28;20044;-63
2021/05/15 05:22:03;;;;;;;27.10;17.48;;;;;;;;;;5088356;28;20055;-63
2021/05/15 05:24:48;;;;;;;24.83;15.73;;;;;;;;;;5094342;28;20040;-63
2021/05/15 05:27:34;;;;;;;28.88;16.30;;;;;;;;;;5094087;28;20048;-63
2021/05/15 05:30:20;;;;;;;27.38;16.38;;;;;;;;;;5093923;28;20131;-63
2021/05/15 05:33:05;;;;;;;26.60;17.65;;;;;;;;;;5073776;28;20112;-63
2021/05/15 05:35:50;;;;;;;27.90;16.92;;;;;;;;;;5076378;28;20044;-62
2021/05/15 05:38:35;;;;;;;25.60;17.30;;;;;;;;;;5064499;28;20052;-63
2021/05/15 05:41:23;;;;;;;27.17;16.20;;;;;;;;;;5112226;22;20463;-62
2021/05/15 05:44:08;;;;;;;25.83;16.30;;;;;;;;;;5106115;28;20039;-62
2021/05/15 05:46:54;;;;;;;28.20;16.50;;;;;;;;;;5102014;28;20040;-62
2021/05/15 05:49:39;;;;;;;25.40;16.63;;;;;;;;;;5095118;28;20043;-62
2021/05/15 05:52:25;;;;;;;26.20;17.00;;;;;;;;;;5074510;28;20055;-62
2021/05/15 05:55:10;;;;;;;26.88;17.10;;;;;;;;;;5058392;28;20041;-62
2021/05/15 05:57:55;;;;;;;27.95;18.10;;;;;;;;;;5073367;28;20556;-62
2021/05/15 06:00:40;;;;;;;25.05;16.90;;;;;;;;;;5089905;28;20044;-62
2021/05/15 06:03:26;;;;;;;26.92;16.67;;;;;;;;;;5093781;28;20052;-63
2021/05/15 06:06:11;;;;;;;30.70;16.52;;;;;;;;;;5093584;28;20131;-63
2021/05/15 06:08:58;;;;;;;23.23;16.70;;;;;;;;;;5093458;28;20055;-63
2021/05/15 06:11:43;;;;;;;23.85;16.20;;;;;;;;;;5072982;28;20051;-63
2021/05/15 06:14:29;;;;;;;28.17;16.77;;;;;;;;;;5073004;28;20057;-63
2021/05/15 06:17:14;;;;;;;25.38;16.58;;;;;;;;;;5074062;28;20052;-63
2021/05/15 06:20:00;;;;;;;23.85;16.40;;;;;;;;;;5073086;28;20052;-63
2021/05/15 06:22:45;;;;;;;25.60;16.90;;;;;;;;;;5074089;28;20072;-63
2021/05/15 06:25:31;;;;;;;26.30;16.85;;;;;;;;;;5072984;28;20040;-63
2021/05/15 06:28:16;;;;;;;21.88;15.45;;;;;;;;;;5062705;28;20044;-63
2021/05/15 06:31:02;;;;;;;26.02;15.85;;;;;;;;;;5072453;28;20048;-63
2021/05/15 06:33:47;;;;;;;25.25;16.30;;;;;;;;;;5072568;28;20045;-63
2021/05/15 06:36:33;;;;;;;24.85;15.90;;;;;;;;;;5078072;28;20462;-63
2021/05/15 06:39:18;;;;;;;23.58;15.50;;;;;;;;;;5077538;28;20079;-63
2021/05/15 06:42:04;;;;;;;23.73;15.98;;;;;;;;;;5072379;28;20044;-63
2021/05/15 06:44:49;;;;;;;22.52;15.45;;;;;;;;;;5072558;28;20045;-63
2021/05/15 06:47:34;;;;;;;21.98;15.30;;;;;;;;;;5057377;28;20059;-63
2021/05/15 06:50:19;;;;;;;21.20;16.08;;;;;;;;;;5073011;28;20513;-63
2021/05/15 06:53:05;;;;;;;22.42;15.98;;;;;;;;;;5071403;28;20045;-63
2021/05/15 06:55:50;;;;;;;26.67;15.52;;;;;;;;;;5077521;28;20040;-63
2021/05/15 06:58:35;;;;;;;22.58;14.77;;;;;;;;;;5092497;28;20056;-63
2021/05/15 07:01:21;;;;;;;24.02;15.25;;;;;;;;;;5088765;28;20048;-63
2021/05/15 07:04:07;;;;;;;20.48;14.70;;;;;;;;;;5092541;28;20127;-63
2021/05/15 07:06:52;;;;;;;21.02;14.82;;;;;;;;;;5079229;28;20445;-63
2021/05/15 07:09:37;;;;;;;23.85;16.60;;;;;;;;;;5080078;28;20044;-63
2021/05/15 07:12:24;;;;;;;24.60;15.48;;;;;;;;;;5078506;28;20127;-63
2021/05/15 07:15:10;;;;;;;22.30;14.30;;;;;;;;;;5092247;28;20048;-63
2021/05/15 07:17:55;;;;;;;19.85;15.07;;;;;;;;;;5079617;28;20041;-63
2021/05/15 07:20:40;;;;;;;26.55;15.43;;;;;;;;;;5071852;28;20564;-63
2021/05/15 07:23:26;;;;;;;21.63;13.98;;;;;;;;;;5085389;28;20126;-63
2021/05/15 07:26:12;;;;;;;20.05;14.38;;;;;;;;;;5092094;28;20051;-63
2021/05/15 07:28:57;;;;;;;19.75;13.70;;;;;;;;;;5083770;28;20045;-63
2021/05/15 07:31:42;;;;;;;19.17;13.70;;;;;;;;;;5071771;28;20048;-63
2021/05/15 07:34:27;;;;;;;20.98;14.90;;;;;;;;;;5090907;28;20040;-63
2021/05/15 07:37:13;;;;;;;23.23;15.88;;;;;;;;;;5092261;28;20064;-63
2021/05/15 07:39:58;;;;;;;18.67;14.02;;;;;;;;;;5076436;28;20056;-63
2021/05/15 07:42:43;;;;;;;22.17;13.85;;;;;;;;;;5090140;28;20078;-63
2021/05/15 07:45:28;;;;;;;20.30;14.27;;;;;;;;;;5071914;28;20053;-63
2021/05/15 07:48:13;;;;;;;19.00;13.57;;;;;;;;;;5071883;28;20446;-63
2021/05/15 07:50:59;;;;;;;19.10;14.43;;;;;;;;;;5071506;28;20127;-63
2021/05/15 07:53:44;;;;;;;21.88;14.00;;;;;;;;;;5079148;28;20405;-63
2021/05/15 07:56:30;;;;;;;18.73;13.48;;;;;;;;;;5091956;28;20056;-63
2021/05/15 07:59:16;;;;;;;24.48;16.13;;;;;;;;;;5091998;28;20055;-63
2021/05/15 08:02:01;;;;;;;25.67;15.40;;;;;;;;;;5091926;28;20055;-63
2021/05/15 08:04:46;;;;;;;20.80;15.27;;;;;;;;;;5081648;28;20049;-63
2021/05/15 08:07:32;;;;;;;19.67;14.90;;;;;;;;;;5075421;28;20509;-63
2021/05/15 08:10:17;;;;;;;25.08;16.58;;;;;;;;;;5075052;28;20049;-63
2021/05/15 08:13:02;;;;;;;28.85;17.67;;;;;;;;;;5075307;28;20534;-63
2021/05/15 08:15:48;;;;;;;26.38;17.92;;;;;;;;;;5075526;28;20045;-63
2021/05/15 08:18:33;;;;;;;33.63;18.80;;;;;;;;;;5075466;28;20123;-62
2021/05/15 08:21:19;;;;;;;34.13;20.17;;;;;;;;;;5076232;28;20049;-62
2021/05/15 08:24:04;;;;;;;29.98;19.73;;;;;;;;;;5088380;28;20044;-63
2021/05/15 08:26:50;;;;;;;34.55;20.67;;;;;;;;;;5075061;28;20102;-62
2021/05/15 08:29:36;;;;;;;31.17;19.45;;;;;;;;;;5089577;28;20055;-62
2021/05/15 08:32:21;;;;;;;36.00;21.77;;;;;;;;;;5089702;28;20045;-63
2021/05/15 08:35:07;;;;;;;28.95;18.83;;;;;;;;;;5074769;28;20072;-63
2021/05/15 08:37:52;;;;;;;32.47;21.80;;;;;;;;;;5088019;28;20048;-63
2021/05/15 08:40:38;;;;;;;38.95;22.58;;;;;;;;;;5094842;28;20081;-63
2021/05/15 08:43:23;;;;;;;36.67;25.17;;;;;;;;;;5080314;28;20044;-63
2021/05/15 08:46:14;;;;;;;37.10;25.42;;;;;;;;;;5059608;28;20040;-63
2021/05/15 08:49:05;;;;;;;40.50;24.73;;;;;;;;;;5077479;28;20048;-63
2021/05/15 08:51:53;;;;;;;38.22;22.42;;;;;;;;;;5059604;28;20040;-63
2021/05/15 08:54:38;;;;;;;34.72;24.63;;;;;;;;;;5080729;28;20044;-63
2021/05/15 08:57:23;;;;;;;37.05;23.27;;;;;;;;;;5095069;28;20044;-64
2021/05/15 09:00:16;;;;;;;36.33;23.23;;;;;;;;;;5094315;28;20154;-63
2021/05/15 09:03:07;;;;;;;38.28;23.27;;;;;;;;;;5075819;28;20052;-63
2021/05/15 09:05:52;;;;;;;37.25;23.15;;;;;;;;;;5074412;28;20052;-63
2021/05/15 09:08:38;;;;;;;33.30;22.98;;;;;;;;;;5074310;28;20044;-63
2021/05/15 09:11:23;;;;;;;35.83;23.13;;;;;;;;;;5086983;28;20052;-63
2021/05/15 09:14:19;;;;;;;31.52;22.02;;;;;;;;;;5082019;28;20119;-63
2021/05/15 09:17:04;;;;;;;34.70;23.10;;;;;;;;;;5075593;28;20041;-63
2021/05/15 09:19:56;;;;;;;33.83;22.95;;;;;;;;;;5083857;28;20466;-63
2021/05/15 09:22:41;;;;;;;33.50;22.98;;;;;;;;;;5079159;28;20036;-64
2021/05/15 09:25:26;;;;;;;35.50;23.38;;;;;;;;;;5073863;28;20483;-64
2021/05/15 09:28:12;;;;;;;31.92;23.75;;;;;;;;;;5073766;28;20491;-64
2021/05/15 09:30:57;;;;;;;40.90;24.65;;;;;;;;;;5081983;28;20119;-62
2021/05/15 09:33:43;;;;;;;34.38;23.52;;;;;;;;;;5094104;28;20144;-63
2021/05/15 09:36:29;;;;;;;35.00;25.45;;;;;;;;;;5094266;28;20505;-63
2021/05/15 09:39:18;;;;;;;36.20;24.83;;;;;;;;;;5093943;28;20044;-63
2021/05/15 09:42:03;;;;;;;37.97;25.98;;;;;;;;;;5076947;28;20486;-63
2021/05/15 09:44:48;;;;;;;36.28;25.40;;;;;;;;;;5093800;28;20474;-63
2021/05/15 09:47:33;;;;;;;41.63;27.05;;;;;;;;;;5093797;28;20143;-63
2021/05/15 09:50:19;;;;;;;38.22;26.95;;;;;;;;;;5093232;28;20048;-63
2021/05/15 09:53:09;;;;;;;37.38;27.13;;;;;;;;;;5058775;28;20049;-62
2021/05/15 09:55:55;;;;;;;39.15;26.90;;;;;;;;;;5073389;28;20040;-63
2021/05/15 09:58:41;;;;;;;36.90;27.88;;;;;;;;;;5073436;28;20055;-63
2021/05/15 10:01:26;;;;;;;41.33;29.75;;;;;;;;;;5072853;28;20052;-63
2021/05/15 10:04:11;;;;;;;44.30;28.88;;;;;;;;;;5092780;28;20060;-63
2021/05/15 10:06:57;;;;;;;39.17;28.38;;;;;;;;;;5093310;28;20048;-63
2021/05/15 10:09:42;;;;;;;41.33;28.88;;;;;;;;;;5093043;28;20119;-63
2021/05/15 10:12:28;;;;;;;41.00;28.35;;;;;;;;;;5068718;28;20048;-63
2021/05/15 10:15:13;;;;;;;47.20;31.92;;;;;;;;;;5072870;28;20075;-63
2021/05/15 10:17:58;;;;;;;41.25;29.95;;;;;;;;;;5073015;28;20127;-63
2021/05/15 10:20:43;;;;;;;41.95;30.58;;;;;;;;;;5057610;28;20056;-63
2021/05/15 10:23:36;;;;;;;42.22;29.17;;;;;;;;;;5087475;28;20078;-64
2021/05/15 10:26:24;;;;;;;36.00;26.73;;;;;;;;;;5077710;28;20048;-63
2021/05/15 10:29:10;;;;;;;34.50;26.83;;;;;;;;;;5092874;28;20086;-63
2021/05/15 10:31:55;;;;;;;74.40;30.25;;;;;;;;;;5092750;28;20048;-63
2021/05/15 10:34:40;;;;;;;37.05;27.98;;;;;;;;;;5072777;28;20076;-63
2021/05/15 10:37:26;;;;;;;35.92;28.48;;;;;;;;;;5072541;28;20048;-63
2021/05/15 10:40:14;;;;;;;38.97;28.63;;;;;;;;;;5072067;28;20139;-63
2021/05/15 10:43:00;;;;;;;39.13;28.77;;;;;;;;;;5073495;28;20036;-63
2021/05/15 10:45:45;;;;;;;38.38;29.02;;;;;;;;;;5072429;28;20041;-63
2021/05/15 10:48:30;;;;;;;39.00;28.20;;;;;;;;;;5072317;28;20041;-63
2021/05/15 10:51:15;;;;;;;37.17;27.88;;;;;;;;;;5072216;28;20071;-63
2021/05/15 10:54:01;;;;;;;34.33;28.08;;;;;;;;;;5081922;28;20040;-65
2021/05/15 10:56:50;;;;;;;33.08;26.05;;;;;;;;;;5078176;28;20490;-64
2021/05/15 10:59:36;;;;;;;39.03;28.35;;;;;;;;;;5081705;28;20119;-65
2021/05/15 11:02:21;;;;;;;37.58;28.00;;;;;;;;;;5091994;28;20048;-64
2021/05/15 11:05:21;;;;;;;38.53;27.38;;;;;;;;;;5092351;28;20040;-64
2021/05/15 11:08:06;;;;;;;39.25;29.40;;;;;;;;;;5092469;28;20040;-64
2021/05/15 11:10:52;;;;;;;43.22;28.58;;;;;;;;;;5086178;28;20083;-64
2021/05/15 11:13:50;;;;;;;33.55;25.77;;;;;;;;;;5056962;28;20495;-64
2021/05/15 11:16:35;;;;;;;31.80;24.67;;;;;;;;;;5072080;28;20140;-63
2021/05/15 11:19:20;;;;;;;30.75;25.40;;;;;;;;;;5077558;28;20044;-63
2021/05/15 11:22:06;;;;;;;32.55;24.80;;;;;;;;;;5077226;28;20542;-64
2021/05/15 11:24:52;;;;;;;43.35;25.88;;;;;;;;;;5092126;28;20035;-64
2021/05/15 11:27:44;;;;;;;30.80;25.27;;;;;;;;;;5092083;28;20127;-64
2021/05/15 11:30:30;;;;;;;32.30;25.65;;;;;;;;;;5079245;28;20045;-64
2021/05/15 11:33:19;;;;;;;28.17;24.00;;;;;;;;;;5072020;28;20048;-64
2021/05/15 11:36:05;;;;;;;31.05;24.65;;;;;;;;;;5071847;28;20060;-64
2021/05/15 11:38:50;;;;;;;30.33;23.95;;;;;;;;;;5073486;28;20036;-65
2021/05/15 11:41:35;;;;;;;51.95;26.13;;;;;;;;;;5078511;28;20048;-63
2021/05/15 11:44:22;;;;;;;33.10;25.58;;;;;;;;;;5096354;28;20117;-63
2021/05/15 11:47:09;;;;;;;27.85;23.33;;;;;;;;;;5096294;28;20052;-64
2021/05/15 11:49:57;;;;;;;28.35;24.65;;;;;;;;;;5089144;28;20565;-64
2021/05/15 11:52:42;;;;;;;26.60;22.42;;;;;;;;;;5095878;28;20044;-65
2021/05/15 11:55:28;;;;;;;29.52;23.42;;;;;;;;;;5095977;28;20051;-64
2021/05/15 11:58:14;;;;;;;32.53;23.30;;;;;;;;;;5095953;28;20036;-63
2021/05/15 12:00:59;;;;;;;36.83;23.13;;;;;;;;;;5083124;28;20090;-63
2021/05/15 12:03:46;;;;;;;27.35;22.70;;;;;;;;;;5085521;28;20467;-64
2021/05/15 12:06:31;;;;;;;30.70;23.75;;;;;;;;;;5088798;28;20490;-63
2021/05/15 12:09:17;;;;;;;27.58;22.65;;;;;;;;;;5095665;28;20402;-63
2021/05/15 12:12:02;;;;;;;25.90;21.15;;;;;;;;;;5089143;28;20044;-63
2021/05/15 12:14:47;;;;;;;24.65;19.50;;;;;;;;;;5076389;28;20049;-63
2021/05/15 12:17:33;;;;;;;29.20;19.42;;;;;;;;;;5060372;28;20087;-63
2021/05/15 12:20:37;;;;;;;20.67;17.15;;;;;;;;;;5073456;28;20086;-63
2021/05/15 12:23:22;;;;;;;20.42;16.35;;;;;;;;;;5095440;28;20127;-64
2021/05/15 12:26:09;;;;;;;22.85;19.42;;;;;;;;;;5074842;28;20049;-64
2021/05/15 12:28:54;;;;;;;25.48;17.50;;;;;;;;;;5075121;28;20052;-63
2021/05/15 12:31:42;;;;;;;17.90;15.77;;;;;;;;;;5059431;28;20052;-63
2021/05/15 12:34:27;;;;;;;20.70;16.45;;;;;;;;;;5078273;28;20107;-64
2021/05/15 12:37:13;;;;;;;19.95;17.88;;;;;;;;;;5094864;28;20040;-63
2021/05/15 12:40:01;;;;;;;20.67;17.65;;;;;;;;;;5094021;28;20087;-63
2021/05/15 12:42:46;;;;;;;21.00;16.92;;;;;;;;;;5094373;28;20126;-64
2021/05/15 12:45:35;;;;;;;18.83;16.75;;;;;;;;;;5084691;28;20045;-63
2021/05/15 12:48:35;;;;;;;17.83;16.02;;;;;;;;;;5074690;28;20052;-64
2021/05/15 12:51:26;;;;;;;16.75;15.02;;;;;;;;;;5073787;28;20080;-64
2021/05/15 12:54:21;;;;;;;17.50;14.63;;;;;;;;;;5074478;28;20045;-64
2021/05/15 12:57:07;;;;;;;16.90;14.00;;;;;;;;;;5094694;28;20124;-64
2021/05/15 12:59:55;;;;;;;20.80;13.13;;;;;;;;;;5094425;28;20044;-64
2021/05/15 13:02:40;;;;;;;16.70;13.82;;;;;;;;;;5094614;28;20044;-64
2021/05/15 13:05:29;;;;;;;15.20;13.65;;;;;;;;;;5091284;28;20048;-63
2021/05/15 13:08:14;;;;;;;15.23;13.57;;;;;;;;;;5074280;28;20123;-64
2021/05/15 13:11:09;;;;;;;10.52;9.52;;;;;;;;;;5073992;28;20048;-63
2021/05/15 13:13:56;;;;;;;11.82;9.32;;;;;;;;;;5073947;28;20119;-64
2021/05/15 13:16:41;;;;;;;49.28;11.88;;;;;;;;;;5084941;28;20044;-65
2021/05/15 13:19:27;;;;;;;35.13;10.90;;;;;;;;;;5094129;28;20040;-64
2021/05/15 13:22:12;;;;;;;10.15;8.82;;;;;;;;;;5083987;28;20470;-65
2021/05/15 13:24:57;;;;;;;14.25;9.30;;;;;;;;;;5087324;28;20040;-65
2021/05/15 13:27:43;;;;;;;11.00;8.80;;;;;;;;;;5087249;28;20047;-64
2021/05/15 13:30:50;;;;;;;11.60;9.77;;;;;;;;;;5073595;28;20048;-65
2021/05/15 13:33:36;;;;;;;13.80;9.70;;;;;;;;;;5085294;28;20056;-65
2021/05/15 13:36:21;;;;;;;12.27;9.52;;;;;;;;;;5092593;28;20051;-65
2021/05/15 13:39:08;;;;;;;10.93;9.45;;;;;;;;;;5092047;28;20044;-65
2021/05/15 13:41:53;;;;;;;8.48;7.60;;;;;;;;;;5093754;28;20048;-65
2021/05/15 13:44:39;;;;;;;10.60;9.60;;;;;;;;;;5092717;28;20052;-65
2021/05/15 13:47:24;;;;;;;11.45;9.27;;;;;;;;;;5073053;28;20049;-65
2021/05/15 13:50:10;;;;;;;11.43;8.70;;;;;;;;;;5081942;28;20044;-65
2021/05/15 13:52:55;;;;;;;10.02;7.55;;;;;;;;;;5074641;28;20045;-65
2021/05/15 13:55:42;;;;;;;10.38;8.88;;;;;;;;;;5073169;28;20689;-65
2021/05/15 13:58:27;;;;;;;9.43;8.43;;;;;;;;;;5080105;28;20409;-64
2021/05/15 14:01:12;;;;;;;9.80;8.38;;;;;;;;;;5092378;28;20052;-65
2021/05/15 14:03:58;;;;;;;9.65;8.65;;;;;;;;;;5093116;28;20044;-65
2021/05/15 14:06:43;;;;;;;10.63;9.43;;;;;;;;;;5074275;28;20040;-65
2021/05/15 14:09:29;;;;;;;9.15;8.15;;;;;;;;;;5072703;28;20040;-65
2021/05/15 14:12:14;;;;;;;9.75;8.73;;;;;;;;;;5079758;28;20131;-65
2021/05/15 14:14:59;;;;;;;12.38;10.02;;;;;;;;;;5092842;28;20171;-65
2021/05/15 14:17:45;;;;;;;8.98;8.10;;;;;;;;;;5092850;28;20441;-64
2021/05/15 14:20:30;;;;;;;11.05;9.85;;;;;;;;;;5073146;28;20036;-64
2021/05/15 14:23:16;;;;;;;10.93;9.13;;;;;;;;;;5072415;28;20052;-64
2021/05/15 14:26:01;;;;;;;9.68;8.68;;;;;;;;;;5080165;28;20036;-64
2021/05/15 14:28:47;;;;;;;8.70;7.68;;;;;;;;;;5078831;28;20044;-64
2021/05/15 14:31:32;;;;;;;10.38;9.38;;;;;;;;;;5079376;28;20469;-64
2021/05/15 14:34:18;;;;;;;10.35;9.30;;;;;;;;;;5072638;28;20048;-63
2021/05/15 14:37:03;;;;;;;9.57;8.57;;;;;;;;;;5079026;28;20035;-63
2021/05/15 14:39:48;;;;;;;9.85;8.85;;;;;;;;;;5091934;28;20398;-64
2021/05/15 14:42:34;;;;;;;11.30;9.63;;;;;;;;;;5084770;28;20048;-64
2021/05/15 14:45:19;;;;;;;10.75;9.32;;;;;;;;;;5058192;28;20514;-64
2021/05/15 14:48:04;;;;;;;9.52;8.63;;;;;;;;;;5080721;28;20047;-64
2021/05/15 14:50:50;;;;;;;14.30;9.32;;;;;;;;;;5092145;28;20040;-64
2021/05/15 14:53:36;;;;;;;9.48;8.57;;;;;;;;;;5081882;28;20036;-64
2021/05/15 14:56:21;;;;;;;9.75;8.75;;;;;;;;;;5092603;28;20058;-64
2021/05/15 14:59:07;;;;;;;10.18;9.18;;;;;;;;;;5092335;28;20163;-64
2021/05/15 15:01:52;;;;;;;10.88;9.55;;;;;;;;;;5090350;28;20044;-64
2021/05/15 15:04:38;;;;;;;10.52;9.45;;;;;;;;;;5092157;28;20044;-64
2021/05/15 15:07:23;;;;;;;11.90;9.27;;;;;;;;;;5091900;28;20044;-64
2021/05/15 15:10:09;;;;;;;10.98;9.10;;;;;;;;;;5091798;28;20040;-64
2021/05/15 15:12:54;;;;;;;11.85;10.73;;;;;;;;;;5071716;28;20120;-63
2021/05/15 15:15:40;;;;;;;10.73;9.50;;;;;;;;;;5071796;28;20459;-64
2021/05/15 15:18:25;;;;;;;11.00;9.73;;;;;;;;;;5089213;28;20048;-64
2021/05/15 15:21:11;;;;;;;13.02;11.10;;;;;;;;;;5085920;28;20040;-64
2021/05/15 15:23:56;;;;;;;12.35;11.05;;;;;;;;;;5083964;28;20055;-64
2021/05/15 15:26:41;;;;;;;11.73;10.23;;;;;;;;;;5091959;28;20131;-64
2021/05/15 15:29:27;;;;;;;12.57;11.27;;;;;;;;;;5075224;28;20047;-64
2021/05/15 15:32:12;;;;;;;11.98;10.73;;;;;;;;;;5081884;28;20048;-64
2021/05/15 15:34:58;;;;;;;12.43;9.82;;;;;;;;;;5077847;28;20040;-64
2021/05/15 15:37:43;;;;;;;13.75;11.45;;;;;;;;;;5076637;28;20040;-64
2021/05/15 15:40:28;;;;;;;11.27;10.18;;;;;;;;;;5071156;28;20506;-63
2021/05/15 15:43:14;;;;;;;17.92;10.82;;;;;;;;;;5071508;28;20403;-64
2021/05/15 15:45:59;;;;;;;13.07;11.20;;;;;;;;;;5071360;28;20649;-63
2021/05/15 15:48:46;;;;;;;12.52;11.23;;;;;;;;;;5071635;28;20055;-63
2021/05/15 15:51:32;;;;;;;12.77;11.48;;;;;;;;;;5064837;28;20047;-64
2021/05/15 15:54:17;;;;;;;13.77;12.38;;;;;;;;;;5074456;28;20094;-63
2021/05/15 15:57:02;;;;;;;14.32;12.02;;;;;;;;;;5085834;28;20048;-63
2021/05/15 15:59:48;;;;;;;13.70;11.55;;;;;;;;;;5084169;28;20052;-63
2021/05/15 16:02:33;;;;;;;12.52;10.93;;;;;;;;;;5071414;28;20076;-63
2021/05/15 16:05:19;;;;;;;13.50;11.55;;;;;;;;;;5079248;28;20036;-63
2021/05/15 16:08:04;;;;;;;11.10;8.85;;;;;;;;;;5091583;28;20048;-63
2021/05/15 16:10:50;;;;;;;13.60;10.70;;;;;;;;;;5091170;28;20702;-63